Time;durP1;ratioP1;P1;durP2;ratioP2;P2;SDS_P1;SDS_P2;PMS_P1;PMS_P2;Temp;Humidity;BMP_temperature;BMP_pressure;BME280_temperature;BME280_humidity;BME280_pressure;Samples;Min_cycle;Max_cycle;Signal;HPM_P1;HPM_P2
2020/12/31 00:00:57;;;;;;;4.50;3.33;;;0.30;99.90;;;;;;8466536;28;20027;-69
2020/12/31 00:04:57;;;;;;;5.90;3.58;;;0.20;99.90;;;;;;8454720;28;20070;-69
2020/12/31 00:08:58;;;;;;;5.13;3.40;;;0.20;99.90;;;;;;8432200;28;20023;-69
2020/12/31 00:12:59;;;;;;;5.03;3.05;;;0.00;99.90;;;;;;8432321;28;20039;-70
2020/12/31 00:16:59;;;;;;;3.85;2.60;;;0.00;99.90;;;;;;8432437;28;20020;-69
2020/12/31 00:21:00;;;;;;;5.20;3.15;;;0.10;99.90;;;;;;8432044;28;20027;-69
2020/12/31 00:25:01;;;;;;;3.92;2.58;;;0.10;99.90;;;;;;8430879;28;20028;-68
2020/12/31 00:29:01;;;;;;;6.25;3.00;;;0.10;99.90;;;;;;8432054;28;20418;-69
2020/12/31 00:33:02;;;;;;;4.00;2.63;;;0.00;99.90;;;;;;8431983;28;20482;-68
2020/12/31 00:37:03;;;;;;;118.85;106.88;;;0.00;99.90;;;;;;8430503;28;20020;-68
2020/12/31 00:41:03;;;;;;;4.95;3.53;;;-0.10;99.90;;;;;;8431679;28;20522;-68
2020/12/31 00:45:04;;;;;;;6.50;3.40;;;-0.10;99.90;;;;;;8430445;28;20035;-69
2020/12/31 00:49:04;;;;;;;5.45;3.30;;;0.00;99.90;;;;;;8431276;28;20101;-69
2020/12/31 00:53:05;;;;;;;4.05;3.10;;;-0.10;99.90;;;;;;8431163;28;20085;-68
2020/12/31 00:57:05;;;;;;;4.60;3.25;;;-0.10;99.90;;;;;;8423241;28;20078;-69
2020/12/31 01:01:06;;;;;;;4.30;2.90;;;-0.20;99.90;;;;;;8397467;28;20028;-68
2020/12/31 01:05:09;;;;;;;4.93;3.20;;;0.00;99.90;;;;;;8397529;28;20035;-69
2020/12/31 01:09:10;;;;;;;3.83;2.97;;;0.30;99.90;;;;;;8395142;28;20025;-68
2020/12/31 01:13:10;;;;;;;3.70;2.42;;;0.50;99.90;;;;;;8428255;28;20028;-68
2020/12/31 01:17:11;;;;;;;5.40;2.38;;;0.70;99.90;;;;;;8430765;28;20044;-69
2020/12/31 01:21:11;;;;;;;5.47;3.35;;;0.80;99.90;;;;;;8428878;28;20108;-69
2020/12/31 01:25:12;;;;;;;2.75;1.63;;;0.80;99.90;;;;;;8430306;28;20028;-68
2020/12/31 01:29:12;;;;;;;4.50;2.58;;;0.80;99.90;;;;;;8424783;28;20610;-68
2020/12/31 01:33:13;;;;;;;5.53;4.13;;;0.90;99.90;;;;;;8396714;28;20410;-68
2020/12/31 01:37:16;;;;;;;4.45;3.20;;;0.90;99.90;;;;;;8396251;28;20025;-68
2020/12/31 01:41:25;;;;;;;5.47;3.22;;;1.00;99.90;;;;;;8409950;28;20028;-68
2020/12/31 01:45:26;;;;;;;5.68;3.60;;;0.90;99.90;;;;;;8428290;28;20032;-69
2020/12/31 01:49:32;;;;;;;4.60;2.55;;;1.00;99.90;;;;;;8429161;28;20036;-69
2020/12/31 01:53:33;;;;;;;6.72;4.40;;;1.00;99.90;;;;;;8429328;28;20032;-69
2020/12/31 01:57:35;;;;;;;7.53;3.90;;;1.00;99.90;;;;;;8428896;28;20061;-68
2020/12/31 02:01:36;;;;;;;3.75;2.28;;;1.10;99.90;;;;;;8427272;28;20551;-68
2020/12/31 02:05:37;;;;;;;6.38;4.40;;;1.10;99.90;;;;;;8427744;28;20031;-69
2020/12/31 02:09:37;;;;;;;5.85;3.50;;;1.10;99.90;;;;;;8426013;28;20505;-68
2020/12/31 02:13:38;;;;;;;6.72;3.78;;;1.10;99.90;;;;;;8393691;28;20162;-70
2020/12/31 02:17:38;;;;;;;4.97;3.38;;;1.00;99.90;;;;;;8393955;28;20074;-69
2020/12/31 02:21:57;;;;;;;6.45;4.35;;;1.00;99.90;;;;;;8392546;28;20032;-68
2020/12/31 02:25:58;;;;;;;8.43;4.93;;;1.00;99.90;;;;;;8393412;28;20028;-69
2020/12/31 02:29:59;;;;;;;8.82;4.20;;;1.00;99.90;;;;;;8393175;28;20475;-68
2020/12/31 02:34:00;;;;;;;5.78;3.75;;;1.00;99.90;;;;;;8408049;28;20034;-69
2020/12/31 02:38:00;;;;;;;9.07;4.68;;;1.10;99.90;;;;;;8393021;28;20028;-69
2020/12/31 02:42:01;;;;;;;6.20;3.95;;;1.00;99.90;;;;;;8414139;28;20042;-68
2020/12/31 02:46:06;;;;;;;6.75;4.28;;;0.90;99.90;;;;;;8425218;28;20059;-68
2020/12/31 02:50:07;;;;;;;10.52;5.20;;;1.00;99.90;;;;;;8419957;28;20099;-68
2020/12/31 02:54:07;;;;;;;8.63;5.40;;;0.90;99.90;;;;;;8398761;28;20082;-69
2020/12/31 02:58:08;;;;;;;8.80;4.80;;;0.80;99.90;;;;;;8424901;28;20165;-69
2020/12/31 03:02:09;;;;;;;7.80;5.28;;;0.60;99.90;;;;;;8421196;28;20371;-68
2020/12/31 03:06:10;;;;;;;7.97;4.97;;;0.40;99.90;;;;;;8406783;28;20085;-68
2020/12/31 03:10:10;;;;;;;8.95;5.38;;;0.20;99.90;;;;;;8408337;28;20583;-70
2020/12/31 03:14:11;;;;;;;9.98;5.80;;;0.00;99.90;;;;;;8425270;28;20043;-68
2020/12/31 03:18:11;;;;;;;10.40;5.03;;;0.00;99.90;;;;;;8417977;28;20516;-68
2020/12/31 03:22:12;;;;;;;7.25;4.75;;;-0.10;99.90;;;;;;8416230;28;20050;-69
2020/12/31 03:26:12;;;;;;;8.57;5.50;;;-0.30;99.90;;;;;;8422159;28;20056;-68
2020/12/31 03:30:13;;;;;;;7.63;5.25;;;-0.50;99.90;;;;;;8405047;28;20368;-69
2020/12/31 03:34:14;;;;;;;10.30;5.30;;;-0.70;99.90;;;;;;8403990;28;20636;-68
2020/12/31 03:38:17;;;;;;;9.18;5.22;;;-0.80;99.90;;;;;;8421327;28;20552;-68
2020/12/31 03:42:17;;;;;;;10.57;5.72;;;-0.90;99.90;;;;;;8400922;28;20036;-69
2020/12/31 03:46:18;;;;;;;10.07;5.32;;;-1.00;99.90;;;;;;8395013;28;20078;-68
2020/12/31 03:50:18;;;;;;;13.60;6.20;;;-1.10;99.90;;;;;;8407427;28;20081;-68
2020/12/31 03:54:19;;;;;;;11.90;5.60;;;-1.10;99.90;;;;;;8405417;28;20025;-69
2020/12/31 03:58:20;;;;;;;9.88;5.43;;;-1.20;99.90;;;;;;8394046;28;20504;-68
2020/12/31 04:02:20;;;;;;;11.05;5.40;;;-0.90;99.90;;;;;;8407392;28;20087;-68
2020/12/31 04:06:21;;;;;;;9.68;5.43;;;-1.20;99.90;;;;;;8402767;28;20056;-68
2020/12/31 04:10:22;;;;;;;9.75;5.60;;;-0.70;99.90;;;;;;8393240;28;20020;-69
2020/12/31 04:14:22;;;;;;;9.93;5.70;;;-0.90;99.90;;;;;;8414883;28;20024;-67
2020/12/31 04:18:23;;;;;;;12.25;5.78;;;-1.20;99.90;;;;;;8414365;28;20032;-68
2020/12/31 04:22:23;;;;;;;12.20;6.63;;;-1.30;99.90;;;;;;8398896;28;20028;-68
2020/12/31 04:26:24;;;;;;;11.02;6.50;;;-1.60;99.90;;;;;;8397759;28;20024;-68
2020/12/31 04:30:24;;;;;;;12.75;6.38;;;-1.70;99.90;;;;;;8390895;28;20086;-69
2020/12/31 04:34:25;;;;;;;12.07;6.35;;;-1.90;99.90;;;;;;8398262;28;20059;-68
2020/12/31 04:38:25;;;;;;;11.18;5.80;;;-1.90;99.90;;;;;;8398348;28;20028;-68
2020/12/31 04:42:34;;;;;;;10.88;5.90;;;-2.00;99.90;;;;;;8407376;28;20025;-68
2020/12/31 04:46:38;;;;;;;9.82;6.00;;;-1.70;99.90;;;;;;8399523;28;20646;-69
2020/12/31 04:50:40;;;;;;;9.57;5.60;;;-1.90;99.90;;;;;;8424346;28;20031;-67
2020/12/31 04:54:42;;;;;;;9.57;5.45;;;-1.80;99.90;;;;;;8427987;28;20059;-68
2020/12/31 04:58:43;;;;;;;12.15;6.55;;;-1.50;99.90;;;;;;8405698;28;20100;-68
2020/12/31 05:02:53;;;;;;;11.30;5.85;;;-1.60;99.90;;;;;;8395054;28;20024;-70
2020/12/31 05:06:54;;;;;;;9.85;5.28;;;-1.50;99.90;;;;;;8406972;28;20518;-68
2020/12/31 05:10:55;;;;;;;12.68;6.38;;;-1.90;99.90;;;;;;8407876;28;20028;-67
2020/12/31 05:14:56;;;;;;;13.02;6.43;;;-2.30;99.90;;;;;;8421692;28;20486;-68
2020/12/31 05:18:57;;;;;;;12.75;6.93;;;-2.20;99.90;;;;;;8428769;28;20063;-67
2020/12/31 05:23:10;;;;;;;12.68;6.38;;;-1.70;99.90;;;;;;8429033;28;20518;-68
2020/12/31 05:27:20;;;;;;;11.63;7.03;;;-2.00;99.90;;;;;;8422733;28;20111;-68
2020/12/31 05:31:21;;;;;;;15.77;7.32;;;-1.90;99.90;;;;;;8410108;28;20036;-68
2020/12/31 05:35:22;;;;;;;15.40;8.07;;;-2.30;99.90;;;;;;8410525;28;20078;-68
2020/12/31 05:39:22;;;;;;;21.63;10.38;;;-2.60;99.90;;;;;;8408791;28;20501;-68
2020/12/31 05:43:23;;;;;;;18.23;9.70;;;-2.60;99.90;;;;;;8411730;28;20028;-68
2020/12/31 05:47:23;;;;;;;19.10;9.73;;;-2.50;99.90;;;;;;8408186;28;20159;-68
2020/12/31 05:51:27;;;;;;;15.65;8.10;;;-2.40;99.90;;;;;;8420571;28;20020;-68
2020/12/31 05:55:30;;;;;;;1122.20;732.00;;;-2.40;99.90;;;;;;8427569;28;20020;-69
2020/12/31 05:59:37;;;;;;;13.32;6.95;;;-2.40;99.90;;;;;;8426232;28;20474;-68
2020/12/31 06:03:48;;;;;;;13.52;8.35;;;-2.20;99.90;;;;;;8427525;28;20027;-68
2020/12/31 06:07:50;;;;;;;13.43;8.13;;;-2.40;99.90;;;;;;8392621;28;20020;-67
2020/12/31 06:12:00;;;;;;;18.73;9.15;;;-2.30;99.90;;;;;;8413799;28;20494;-68
2020/12/31 06:16:03;;;;;;;14.77;8.20;;;-2.40;99.90;;;;;;8427047;28;20502;-67
2020/12/31 06:20:12;;;;;;;29.02;14.38;;;-2.30;99.90;;;;;;8444854;28;20470;-67
2020/12/31 06:24:13;;;;;;;35.85;17.10;;;-2.30;99.90;;;;;;8416409;28;20086;-68
2020/12/31 06:28:23;;;;;;;34.38;17.10;;;-2.30;99.90;;;;;;8408982;28;20028;-67
2020/12/31 06:32:36;;;;;;;39.90;16.88;;;-2.30;99.90;;;;;;8406608;28;20059;-67
2020/12/31 06:36:36;;;;;;;33.35;15.80;;;-2.50;99.90;;;;;;8408933;28;20462;-68
2020/12/31 06:40:37;;;;;;;40.67;17.13;;;-2.50;99.90;;;;;;8425174;28;20031;-67
2020/12/31 06:44:38;;;;;;;30.13;14.50;;;-2.60;99.90;;;;;;8395382;28;20029;-67
2020/12/31 06:48:39;;;;;;;22.58;11.35;;;-2.40;99.90;;;;;;8405923;28;20091;-67
2020/12/31 06:52:40;;;;;;;17.23;9.05;;;-2.50;99.90;;;;;;8417527;28;20119;-67
2020/12/31 06:56:41;;;;;;;15.90;9.27;;;-2.20;99.90;;;;;;8416466;28;20571;-67
2020/12/31 07:00:41;;;;;;;15.18;8.55;;;-2.40;99.90;;;;;;8418083;28;20032;-67
2020/12/31 07:04:42;;;;;;;17.05;8.52;;;-2.30;99.90;;;;;;8407994;28;20460;-68
2020/12/31 07:08:44;;;;;;;17.98;9.98;;;-2.50;99.90;;;;;;8388860;28;20028;-67
2020/12/31 07:12:45;;;;;;;19.05;10.07;;;-2.40;99.90;;;;;;8407596;28;20028;-67
2020/12/31 07:17:07;;;;;;;21.15;11.45;;;-2.40;99.90;;;;;;8389267;28;20038;-68
2020/12/31 07:21:08;;;;;;;18.02;10.48;;;-2.30;99.90;;;;;;8397957;28;20482;-67
2020/12/31 07:25:14;;;;;;;11.73;7.40;;;-2.30;99.90;;;;;;8419941;28;20028;-68
2020/12/31 07:29:19;;;;;;;21.20;11.05;;;-2.40;99.90;;;;;;8407193;28;20040;-67
2020/12/31 07:33:49;;;;;;;23.88;12.68;;;-2.40;99.90;;;;;;8401574;28;20055;-67
2020/12/31 07:37:51;;;;;;;22.70;11.87;;;-2.20;99.90;;;;;;8417055;28;20053;-67
2020/12/31 07:42:17;;;;;;;20.23;10.55;;;-2.10;99.90;;;;;;8427770;28;20111;-67
2020/12/31 07:46:18;;;;;;;22.77;11.25;;;-1.90;99.90;;;;;;8408311;28;20111;-67
2020/12/31 07:50:19;;;;;;;25.58;13.88;;;-1.60;99.90;;;;;;8402561;28;20051;-67
2020/12/31 07:54:20;;;;;;;14.60;7.82;;;-1.40;99.90;;;;;;8410327;28;20027;-69
2020/12/31 07:58:26;;;;;;;18.30;9.77;;;-1.30;99.90;;;;;;8426864;28;20541;-69
2020/12/31 08:02:26;;;;;;;12.80;8.02;;;-1.30;99.90;;;;;;8391366;28;20029;-67
2020/12/31 08:06:27;;;;;;;14.70;7.60;;;-1.10;99.90;;;;;;8443769;28;20074;-67
2020/12/31 08:10:33;;;;;;;14.77;7.70;;;-1.00;99.90;;;;;;8457450;28;20040;-67
2020/12/31 08:14:44;;;;;;;27.88;12.85;;;-0.80;99.90;;;;;;8391149;28;20083;-67
2020/12/31 08:18:45;;;;;;;21.88;10.57;;;-0.80;99.90;;;;;;8392520;28;20040;-67
2020/12/31 08:22:53;;;;;;;17.45;8.75;;;-0.60;99.90;;;;;;8397560;28;20032;-67
2020/12/31 08:26:59;;;;;;;15.07;8.48;;;-0.60;99.90;;;;;;8406976;28;20016;-67
2020/12/31 08:31:00;;;;;;;14.27;7.43;;;-0.70;99.90;;;;;;8457785;28;20073;-67
2020/12/31 08:35:01;;;;;;;47.70;23.35;;;-0.70;99.90;;;;;;8415359;28;20065;-69
2020/12/31 08:39:05;;;;;;;21.45;11.68;;;-0.60;99.90;;;;;;8411646;28;20016;-70
2020/12/31 08:43:08;;;;;;;19.33;9.43;;;-0.50;99.90;;;;;;8414712;28;20040;-69
2020/12/31 08:47:18;;;;;;;17.60;9.88;;;-0.30;99.90;;;;;;8408420;28;20031;-70
2020/12/31 08:51:19;;;;;;;13.43;7.32;;;-0.10;99.90;;;;;;8412611;28;20145;-69
2020/12/31 08:55:23;;;;;;;12.68;6.47;;;0.20;99.90;;;;;;8404977;28;20441;-70
2020/12/31 08:59:30;;;;;;;11.05;7.63;;;0.50;99.90;;;;;;8423754;28;20059;-70
2020/12/31 09:03:31;;;;;;;10.52;6.97;;;0.50;99.90;;;;;;8417917;28;20042;-69
2020/12/31 09:07:32;;;;;;;15.20;8.57;;;0.70;99.90;;;;;;8413378;28;20025;-71
2020/12/31 09:11:32;;;;;;;11.25;6.75;;;0.80;99.90;;;;;;8406886;28;20028;-70
2020/12/31 09:15:33;;;;;;;10.85;5.88;;;1.00;99.90;;;;;;8405302;28;20022;-69
2020/12/31 09:19:33;;;;;;;11.20;6.30;;;1.10;99.90;;;;;;8397824;28;20700;-68
2020/12/31 09:23:34;;;;;;;10.30;6.30;;;1.20;99.90;;;;;;8393842;28;20063;-69
2020/12/31 09:27:35;;;;;;;7.90;5.20;;;1.40;99.90;;;;;;8394105;28;20491;-68
2020/12/31 09:31:36;;;;;;;9.27;5.20;;;1.70;99.90;;;;;;8411077;28;20031;-68
2020/12/31 09:35:37;;;;;;;10.07;6.10;;;1.80;99.90;;;;;;8415242;28;20027;-68
2020/12/31 09:39:38;;;;;;;8.23;5.90;;;1.90;99.90;;;;;;8428109;28;20394;-69
2020/12/31 09:43:38;;;;;;;10.73;6.22;;;2.10;99.90;;;;;;8410520;28;20104;-68
2020/12/31 09:47:39;;;;;;;8.82;4.57;;;2.30;99.90;;;;;;8410917;28;20040;-67
2020/12/31 09:51:39;;;;;;;8.48;5.82;;;2.40;99.90;;;;;;8416605;28;20020;-66
2020/12/31 09:55:40;;;;;;;6.40;4.38;;;2.70;99.90;;;;;;8421296;28;20082;-66
2020/12/31 09:59:41;;;;;;;7.72;4.68;;;3.00;99.90;;;;;;8422494;28;20107;-66
2020/12/31 10:03:41;;;;;;;9.30;5.03;;;3.40;99.90;;;;;;8425517;28;20073;-67
2020/12/31 10:07:42;;;;;;;6.70;4.78;;;3.50;99.90;;;;;;8426715;28;20093;-66
2020/12/31 10:11:47;;;;;;;6.15;4.40;;;3.80;99.90;;;;;;8424905;28;20024;-66
2020/12/31 10:15:48;;;;;;;62.88;56.25;;;4.00;99.90;;;;;;8425736;28;20027;-67
2020/12/31 10:19:48;;;;;;;6.80;4.50;;;4.30;99.90;;;;;;8424264;28;20060;-67
2020/12/31 10:23:49;;;;;;;6.95;4.00;;;4.60;99.90;;;;;;8425674;28;20016;-66
2020/12/31 10:27:50;;;;;;;8.57;5.30;;;4.60;99.90;;;;;;8426538;28;20023;-67
2020/12/31 10:31:54;;;;;;;8.48;5.03;;;4.70;99.90;;;;;;8425548;28;20023;-67
2020/12/31 10:35:55;;;;;;;6.97;4.40;;;4.50;99.90;;;;;;8423691;28;20056;-67
2020/12/31 10:39:55;;;;;;;22.10;10.68;;;4.40;99.90;;;;;;8423833;28;20024;-67
2020/12/31 10:43:57;;;;;;;12.07;6.07;;;4.40;99.90;;;;;;8424533;28;20024;-68
2020/12/31 10:47:58;;;;;;;12.77;7.18;;;4.50;99.90;;;;;;8425164;28;20051;-67
2020/12/31 10:51:58;;;;;;;7.00;4.05;;;4.80;99.90;;;;;;8447730;22;20423;-69
2020/12/31 10:55:59;;;;;;;10.45;4.22;;;5.40;99.90;;;;;;8324655;28;20057;-69
2020/12/31 10:59:59;;;;;;;164.45;148.20;;;6.30;99.90;;;;;;8325845;28;20376;-69
2020/12/31 11:04:00;;;;;;;45.78;39.20;;;7.50;99.90;;;;;;8328019;28;20022;-70
2020/12/31 11:08:00;;;;;;;957.25;877.60;;;10.10;99.90;;;;;;8355098;28;20483;-70
2020/12/31 11:12:01;;;;;;;3.20;2.22;;;12.80;93.70;;;;;;8325576;28;20487;-70
2020/12/31 11:16:01;;;;;;;279.98;261.95;;;13.80;80.90;;;;;;8305571;28;20128;-70
2020/12/31 11:20:03;;;;;;;2.83;2.30;;;13.10;78.50;;;;;;8304483;28;20646;-68
2020/12/31 11:24:04;;;;;;;6.57;2.75;;;11.20;82.30;;;;;;8316709;28;20116;-70
2020/12/31 11:28:04;;;;;;;2.72;2.08;;;10.70;88.40;;;;;;8325409;28;20029;-70
2020/12/31 11:32:05;;;;;;;18.02;10.98;;;11.30;85.10;;;;;;8312539;28;20037;-70
2020/12/31 11:36:10;;;;;;;2.78;2.13;;;10.90;85.90;;;;;;8302262;28;20021;-70
2020/12/31 11:40:10;;;;;;;2.92;1.77;;;9.90;89.40;;;;;;8318355;28;20029;-70
2020/12/31 11:44:11;;;;;;;5.72;4.30;;;9.70;89.70;;;;;;8319838;28;20808;-71
2020/12/31 11:48:11;;;;;;;4.60;3.58;;;9.80;90.40;;;;;;8316781;28;20033;-71
2020/12/31 11:52:12;;;;;;;1.92;1.27;;;11.40;87.60;;;;;;8301614;28;20033;-70
2020/12/31 11:56:13;;;;;;;1.67;1.20;;;11.50;78.60;;;;;;8329674;28;20048;-70
2020/12/31 12:00:14;;;;;;;1.60;1.20;;;10.70;82.80;;;;;;8325123;28;20033;-79
2020/12/31 12:04:14;;;;;;;1.70;1.40;;;9.80;81.50;;;;;;8313995;28;20061;-71
2020/12/31 12:08:15;;;;;;;1.67;1.15;;;8.30;88.40;;;;;;8330236;28;20396;-69
2020/12/31 12:12:16;;;;;;;2.53;1.60;;;7.70;90.30;;;;;;8323956;28;20113;-68
2020/12/31 12:16:20;;;;;;;2.25;1.40;;;7.40;91.90;;;;;;8329801;28;20030;-70
2020/12/31 12:20:20;;;;;;;2.45;1.30;;;7.50;92.90;;;;;;8311040;28;20197;-72
2020/12/31 12:24:21;;;;;;;2.53;1.40;;;7.50;93.40;;;;;;8307980;28;20033;-69
2020/12/31 12:28:22;;;;;;;1.75;1.27;;;7.50;92.80;;;;;;8304051;28;20368;-72
2020/12/31 12:32:22;;;;;;;1.63;1.20;;;7.10;92.80;;;;;;8321017;28;20395;-68
2020/12/31 12:36:23;;;;;;;3.10;2.13;;;6.90;93.50;;;;;;8326605;28;20036;-70
2020/12/31 12:40:24;;;;;;;1.70;1.30;;;6.80;91.30;;;;;;8328912;28;20049;-70
2020/12/31 12:44:25;;;;;;;2.67;1.60;;;6.20;93.20;;;;;;8311594;28;20021;-69
2020/12/31 12:48:26;;;;;;;9.13;5.30;;;5.70;96.10;;;;;;8310404;28;20492;-69
2020/12/31 12:52:26;;;;;;;41.33;16.63;;;5.50;97.50;;;;;;8312045;28;20036;-70
2020/12/31 12:56:27;;;;;;;26.20;12.18;;;5.40;98.00;;;;;;8311350;28;20511;-71
2020/12/31 13:00:27;;;;;;;4.75;2.90;;;5.50;97.30;;;;;;8325484;28;20029;-70
2020/12/31 13:04:28;;;;;;;3.15;2.35;;;6.20;94.90;;;;;;8310180;28;20030;-68
2020/12/31 13:08:29;;;;;;;3.22;2.13;;;6.20;94.50;;;;;;8330255;28;20040;-70
2020/12/31 13:12:31;;;;;;;6.60;5.15;;;6.30;93.10;;;;;;8324266;28;20037;-69
2020/12/31 13:16:32;;;;;;;2.13;1.35;;;6.40;93.70;;;;;;8290340;28;20596;-68
2020/12/31 13:20:32;;;;;;;1.63;1.17;;;6.70;92.50;;;;;;8316520;28;20024;-68
2020/12/31 13:24:33;;;;;;;2.35;1.90;;;7.70;90.40;;;;;;8308317;28;20029;-69
2020/12/31 13:28:34;;;;;;;6.57;2.05;;;8.20;89.90;;;;;;8307384;28;20061;-68
2020/12/31 13:32:35;;;;;;;1.75;1.40;;;8.30;88.60;;;;;;8307059;28;20060;-68
2020/12/31 13:36:35;;;;;;;25.00;14.52;;;7.20;89.50;;;;;;8320593;28;20121;-68
2020/12/31 13:40:36;;;;;;;4.63;2.30;;;6.10;92.20;;;;;;8328738;28;20460;-68
2020/12/31 13:44:37;;;;;;;2.13;1.83;;;5.30;93.90;;;;;;8332859;28;20072;-68
2020/12/31 13:48:37;;;;;;;3.22;1.80;;;5.10;95.30;;;;;;8328216;28;20029;-68
2020/12/31 13:52:39;;;;;;;5.53;1.90;;;4.80;95.90;;;;;;8329067;28;20033;-68
2020/12/31 13:56:41;;;;;;;3.65;1.50;;;4.60;96.90;;;;;;8296911;28;20389;-68
2020/12/31 14:00:42;;;;;;;6.60;3.80;;;4.50;97.70;;;;;;8299894;28;20092;-68
2020/12/31 14:04:42;;;;;;;11.90;6.65;;;4.50;98.20;;;;;;8321433;28;20057;-68
2020/12/31 14:08:43;;;;;;;5.22;3.03;;;4.20;99.70;;;;;;8357648;28;20021;-68
2020/12/31 14:12:45;;;;;;;4.32;3.58;;;4.40;99.90;;;;;;8315120;28;20037;-68
2020/12/31 14:16:46;;;;;;;3.17;2.00;;;4.60;99.90;;;;;;8330414;28;20033;-69
2020/12/31 14:20:47;;;;;;;3.60;2.00;;;4.60;99.90;;;;;;8327171;28;20030;-69
2020/12/31 14:24:48;;;;;;;4.22;2.63;;;4.50;99.90;;;;;;8332779;28;20040;-68
2020/12/31 14:28:49;;;;;;;2.08;1.67;;;4.60;99.90;;;;;;8320028;28;20029;-68
2020/12/31 14:32:49;;;;;;;3.78;2.58;;;4.70;99.90;;;;;;8324386;28;20032;-70
2020/12/31 14:36:50;;;;;;;3.88;2.10;;;4.80;99.90;;;;;;8315784;28;20120;-68
2020/12/31 14:40:51;;;;;;;3.85;2.20;;;4.80;99.90;;;;;;8325731;28;20729;-69
2020/12/31 14:44:51;;;;;;;6.15;2.33;;;4.50;99.90;;;;;;8325808;28;20036;-73
2020/12/31 14:48:52;;;;;;;4.63;2.80;;;4.30;99.90;;;;;;8308445;28;20272;-69
2020/12/31 14:52:52;;;;;;;7.68;4.28;;;4.40;99.90;;;;;;8326431;28;20033;-68
2020/12/31 14:56:56;;;;;;;6.63;3.05;;;4.20;99.90;;;;;;8335589;28;20083;-72
2020/12/31 15:00:57;;;;;;;6.50;3.63;;;3.90;99.90;;;;;;8320838;28;20152;-70
2020/12/31 15:04:57;;;;;;;6.15;3.83;;;3.80;99.90;;;;;;8297274;28;20685;-70
2020/12/31 15:08:58;;;;;;;24.90;12.80;;;3.60;99.90;;;;;;8325864;28;20021;-68
2020/12/31 15:12:58;;;;;;;8.40;4.72;;;3.20;99.90;;;;;;8309436;28;20030;-70
2020/12/31 15:16:59;;;;;;;19.02;11.45;;;3.20;99.90;;;;;;8318993;28;20079;-70
2020/12/31 15:21:00;;;;;;;5.05;3.78;;;2.90;99.90;;;;;;8318075;28;20408;-67
2020/12/31 15:25:01;;;;;;;13.77;6.88;;;2.80;99.90;;;;;;8305478;28;20036;-69
2020/12/31 15:29:02;;;;;;;22.35;11.52;;;2.60;99.90;;;;;;8293670;28;20022;-69
2020/12/31 15:33:03;;;;;;;24.08;11.95;;;2.40;99.90;;;;;;8303691;28;20025;-69
2020/12/31 15:37:05;;;;;;;5.18;2.92;;;2.50;99.90;;;;;;8311426;28;20041;-69
2020/12/31 15:41:06;;;;;;;5.32;2.78;;;2.80;99.90;;;;;;8326403;28;20495;-69
2020/12/31 15:45:07;;;;;;;22.33;12.98;;;2.80;99.90;;;;;;8320847;28;20032;-70
2020/12/31 15:49:08;;;;;;;20.15;9.35;;;2.60;99.90;;;;;;8326173;28;20093;-70
2020/12/31 15:53:08;;;;;;;16.27;7.03;;;2.60;99.90;;;;;;8312355;28;20511;-69
2020/12/31 15:57:09;;;;;;;17.60;8.48;;;2.60;99.90;;;;;;8325067;28;20111;-69
2020/12/31 16:01:13;;;;;;;10.25;5.05;;;2.40;99.90;;;;;;8325864;28;20056;-69
2020/12/31 16:05:17;;;;;;;11.95;5.35;;;2.40;99.90;;;;;;8326333;28;20515;-70
2020/12/31 16:09:18;;;;;;;7.13;3.28;;;2.10;99.90;;;;;;8322364;28;20369;-70
2020/12/31 16:13:19;;;;;;;6.57;3.65;;;1.90;99.90;;;;;;8306725;28;20034;-70
2020/12/31 16:17:21;;;;;;;4.78;3.10;;;2.10;99.90;;;;;;8325785;28;20045;-69
2020/12/31 16:21:22;;;;;;;7.53;4.30;;;2.20;99.90;;;;;;8324195;28;20036;-69
2020/12/31 16:25:23;;;;;;;6.82;3.28;;;1.90;99.90;;;;;;8291800;28;20018;-69
2020/12/31 16:29:23;;;;;;;10.20;5.05;;;1.80;99.90;;;;;;8296198;28;20018;-68
2020/12/31 16:33:25;;;;;;;8.68;4.93;;;1.70;99.90;;;;;;8308883;28;20099;-67
2020/12/31 16:37:25;;;;;;;18.80;7.97;;;1.70;99.90;;;;;;8295736;28;20029;-67
2020/12/31 16:41:26;;;;;;;22.00;11.48;;;1.90;99.90;;;;;;8309293;28;20036;-68
2020/12/31 16:45:27;;;;;;;17.92;9.45;;;2.00;99.90;;;;;;8312124;28;20088;-67
2020/12/31 16:49:28;;;;;;;15.25;8.43;;;1.80;99.90;;;;;;8312527;28;20488;-68
2020/12/31 16:53:28;;;;;;;19.20;10.63;;;1.80;99.90;;;;;;8296479;28;20037;-68
2020/12/31 16:57:29;;;;;;;21.58;11.98;;;1.80;99.90;;;;;;8318307;28;20056;-67
2020/12/31 17:01:30;;;;;;;42.70;20.20;;;1.70;99.90;;;;;;8321316;28;20029;-68
2020/12/31 17:05:30;;;;;;;21.75;11.27;;;1.70;99.90;;;;;;8323408;28;20053;-68
2020/12/31 17:09:31;;;;;;;14.13;7.30;;;1.70;99.90;;;;;;8318454;28;20033;-68
2020/12/31 17:13:31;;;;;;;12.45;6.03;;;1.90;99.90;;;;;;8331626;28;20072;-68
2020/12/31 17:17:32;;;;;;;10.07;5.90;;;1.70;99.90;;;;;;8338032;28;20103;-68
2020/12/31 17:21:35;;;;;;;9.50;5.38;;;1.50;99.90;;;;;;8333668;28;20029;-68
2020/12/31 17:25:35;;;;;;;11.23;6.45;;;1.70;99.90;;;;;;8330991;28;20587;-68
2020/12/31 17:29:37;;;;;;;11.50;6.75;;;1.80;99.90;;;;;;8355619;28;20036;-68
2020/12/31 17:33:37;;;;;;;66.70;27.75;;;1.60;99.90;;;;;;8362032;28;20032;-68
2020/12/31 17:37:38;;;;;;;43.97;21.90;;;1.60;99.90;;;;;;8328641;28;20036;-68
2020/12/31 17:41:39;;;;;;;11.40;6.13;;;1.60;99.90;;;;;;8328764;28;20036;-67
2020/12/31 17:45:39;;;;;;;16.20;9.25;;;1.80;99.90;;;;;;8322858;28;20466;-68
2020/12/31 17:49:41;;;;;;;9.40;5.00;;;1.80;99.90;;;;;;8312174;28;20022;-68
2020/12/31 17:53:42;;;;;;;11.18;6.10;;;1.80;99.90;;;;;;8330046;28;20038;-68
2020/12/31 17:57:44;;;;;;;21.08;11.35;;;1.70;99.90;;;;;;8330134;28;20484;-68
2020/12/31 18:01:45;;;;;;;70.22;33.28;;;1.50;99.90;;;;;;8290838;28;20404;-68
2020/12/31 18:05:49;;;;;;;22.00;11.43;;;1.70;99.90;;;;;;8340821;28;20029;-67
2020/12/31 18:09:50;;;;;;;12.18;7.35;;;1.60;99.90;;;;;;8354496;28;20053;-68
2020/12/31 18:13:51;;;;;;;11.18;6.68;;;1.50;99.90;;;;;;8313514;28;20025;-67
2020/12/31 18:17:52;;;;;;;14.43;7.18;;;1.60;99.90;;;;;;8331080;28;20025;-68
2020/12/31 18:21:52;;;;;;;10.80;6.65;;;1.50;99.90;;;;;;8329104;28;20026;-68
2020/12/31 18:25:53;;;;;;;11.77;7.05;;;1.60;99.90;;;;;;8329459;28;20048;-68
2020/12/31 18:29:53;;;;;;;16.27;9.75;;;1.50;99.90;;;;;;8311621;28;20068;-68
2020/12/31 18:33:54;;;;;;;14.52;8.88;;;1.40;99.90;;;;;;8329725;28;20040;-67
2020/12/31 18:37:54;;;;;;;16.63;9.38;;;1.60;99.90;;;;;;8362106;28;20079;-68
2020/12/31 18:41:56;;;;;;;40.95;18.83;;;1.70;99.90;;;;;;8361492;28;20779;-67
2020/12/31 18:45:57;;;;;;;39.72;18.95;;;1.80;99.90;;;;;;8331115;28;20018;-68
2020/12/31 18:49:57;;;;;;;24.25;13.57;;;1.60;99.90;;;;;;8286192;28;20455;-67
2020/12/31 18:53:58;;;;;;;24.27;13.32;;;1.70;99.90;;;;;;8325253;28;20048;-68
2020/12/31 18:57:58;;;;;;;20.00;10.80;;;1.50;99.90;;;;;;8321274;28;20122;-68
2020/12/31 19:01:59;;;;;;;20.50;9.38;;;1.60;99.90;;;;;;8312329;28;20030;-68
2020/12/31 19:05:59;;;;;;;15.77;8.52;;;1.70;99.90;;;;;;8314135;28;20033;-67
2020/12/31 19:10:00;;;;;;;8.82;5.25;;;1.60;99.90;;;;;;8306812;28;20026;-68
2020/12/31 19:14:01;;;;;;;6.28;3.40;;;1.70;99.90;;;;;;8307266;28;20025;-68
2020/12/31 19:18:01;;;;;;;7.28;4.53;;;1.80;99.90;;;;;;8307029;28;20519;-68
2020/12/31 19:22:04;;;;;;;9.20;3.53;;;2.10;99.90;;;;;;8307446;28;20021;-68
2020/12/31 19:26:05;;;;;;;5.95;3.90;;;2.20;99.90;;;;;;8321050;28;20041;-68
2020/12/31 19:30:07;;;;;;;7.13;4.15;;;2.20;99.90;;;;;;8288115;28;20034;-67
2020/12/31 19:34:09;;;;;;;13.85;7.55;;;2.30;99.90;;;;;;8307966;28;20031;-68
2020/12/31 19:38:09;;;;;;;10.30;6.15;;;2.10;99.90;;;;;;8294587;28;20038;-68
2020/12/31 19:42:10;;;;;;;5.32;3.20;;;2.30;99.90;;;;;;8314278;28;20061;-67
2020/12/31 19:46:12;;;;;;;6.90;2.80;;;2.20;99.90;;;;;;8306233;28;20026;-68
2020/12/31 19:50:14;;;;;;;10.63;6.82;;;2.20;99.90;;;;;;8323585;28;20032;-68
2020/12/31 19:54:15;;;;;;;9.43;5.00;;;2.20;99.90;;;;;;8314868;28;20161;-68
2020/12/31 19:58:17;;;;;;;12.60;5.80;;;2.20;99.90;;;;;;8297229;28;20038;-68
2020/12/31 20:02:18;;;;;;;5.35;3.17;;;2.10;99.90;;;;;;8288806;28;20030;-68
2020/12/31 20:06:20;;;;;;;8.82;4.80;;;2.30;99.90;;;;;;8313693;28;20395;-68
2020/12/31 20:10:20;;;;;;;8.63;4.70;;;2.50;99.90;;;;;;8295309;28;20573;-70
2020/12/31 20:14:21;;;;;;;6.75;3.80;;;2.40;99.90;;;;;;8308036;28;20022;-68
2020/12/31 20:18:22;;;;;;;16.65;9.43;;;2.60;99.90;;;;;;8329588;28;20025;-68
2020/12/31 20:22:23;;;;;;;2.28;1.52;;;2.60;99.90;;;;;;8325473;28;20025;-68
2020/12/31 20:26:24;;;;;;;5.15;3.00;;;2.40;99.90;;;;;;8296580;28;20091;-68
2020/12/31 20:30:24;;;;;;;4.68;3.13;;;2.40;99.90;;;;;;8290964;28;20731;-68
2020/12/31 20:34:25;;;;;;;3.78;2.10;;;2.40;99.90;;;;;;8328976;28;20059;-68
2020/12/31 20:38:27;;;;;;;5.30;3.58;;;2.30;99.90;;;;;;8343887;28;20028;-68
2020/12/31 20:42:28;;;;;;;1.80;1.23;;;2.20;99.90;;;;;;8360059;28;20021;-68
2020/12/31 20:46:31;;;;;;;5.75;2.92;;;2.10;99.90;;;;;;8361700;28;20100;-68
2020/12/31 20:50:32;;;;;;;5.40;3.47;;;2.10;99.90;;;;;;8360404;28;20094;-68
2020/12/31 20:54:33;;;;;;;6.32;3.72;;;2.00;99.90;;;;;;8325761;28;20033;-68
2020/12/31 20:58:34;;;;;;;6.50;4.60;;;2.00;99.90;;;;;;8327625;28;20029;-68